createdAt,value
2018-08-03T00:00:51.313Z,8.53
2018-08-03T00:03:22.259Z,8.45
2018-08-03T00:05:52.692Z,8.83
2018-08-03T00:08:23.086Z,9.33
2018-08-03T00:10:53.470Z,8.65
2018-08-03T00:13:24.044Z,8.53
2018-08-03T00:15:54.456Z,8.78
2018-08-03T00:18:25.226Z,8.93
2018-08-03T00:20:56.075Z,8.73
2018-08-03T00:23:26.495Z,8.55
2018-08-03T00:25:57.027Z,9.48
2018-08-03T00:28:27.077Z,9.35
2018-08-03T00:30:57.793Z,9.55
2018-08-03T00:33:28.582Z,8.85
2018-08-03T00:35:59.385Z,9.63
2018-08-03T00:38:29.954Z,9.60
2018-08-03T00:41:00.408Z,10.05
2018-08-03T00:43:30.858Z,9.70
2018-08-03T00:46:01.607Z,9.73
2018-08-03T00:48:32.053Z,10.10
2018-08-03T00:51:02.437Z,9.73
2018-08-03T00:53:33.242Z,9.13
2018-08-03T00:56:04.199Z,10.28
2018-08-03T00:58:34.654Z,9.53
2018-08-03T01:01:05.274Z,9.70
2018-08-03T01:03:35.680Z,9.73
2018-08-03T01:06:06.232Z,10.10
2018-08-03T01:08:37.529Z,10.68
2018-08-03T01:11:08.018Z,11.30
2018-08-03T01:13:38.611Z,10.53
2018-08-03T01:16:08.977Z,11.53
2018-08-03T01:18:39.385Z,10.30
2018-08-03T01:21:10.202Z,12.00
2018-08-03T01:23:41.007Z,10.55
2018-08-03T01:26:11.559Z,11.53
2018-08-03T01:28:42.254Z,10.40
2018-08-03T01:31:12.722Z,10.10
2018-08-03T01:33:43.229Z,10.10
2018-08-03T01:36:13.692Z,10.93
2018-08-03T01:38:44.351Z,10.03
2018-08-03T01:41:14.830Z,10.23
2018-08-03T01:43:46.277Z,11.68
2018-08-03T01:46:17.159Z,10.20
2018-08-03T01:48:47.573Z,10.85
2018-08-03T02:02:06.153Z,10.58
2018-08-03T02:04:36.573Z,10.10
2018-08-03T02:07:07.009Z,10.63
2018-08-03T02:09:37.471Z,11.30
2018-08-03T02:12:07.953Z,11.40
2018-08-03T02:14:38.705Z,12.03
2018-08-03T02:17:09.251Z,11.80
2018-08-03T02:19:39.688Z,12.30
2018-08-03T02:22:10.444Z,11.43
2018-08-03T02:24:41.201Z,11.50
2018-08-03T02:27:11.824Z,12.03
2018-08-03T02:29:42.323Z,11.90
2018-08-03T02:32:12.779Z,12.15
2018-08-03T02:34:43.623Z,12.75
2018-08-03T02:37:14.091Z,12.95
2018-08-03T02:39:44.632Z,13.30
2018-08-03T02:42:15.099Z,12.78
2018-08-03T02:44:45.644Z,12.70
2018-08-03T02:47:16.067Z,13.30
2018-08-03T02:49:46.477Z,12.63
2018-08-03T02:56:34.939Z,12.25
2018-08-03T02:59:05.471Z,12.50
2018-08-03T03:01:36.251Z,13.72
2018-08-03T03:04:07.239Z,13.70
2018-08-03T03:10:14.294Z,14.10
2018-08-03T03:12:44.719Z,13.78
2018-08-03T03:15:15.285Z,14.90
2018-08-03T03:17:46.089Z,14.10
2018-08-03T03:20:16.555Z,15.05
2018-08-03T03:23:35.042Z,14.13
2018-08-03T03:26:05.447Z,14.38
2018-08-03T03:28:35.861Z,14.23
2018-08-03T03:31:06.322Z,14.15
2018-08-03T03:33:36.874Z,14.50
2018-08-03T03:36:07.437Z,14.73
2018-08-03T03:38:37.935Z,14.68
2018-08-03T03:41:08.371Z,15.28
2018-08-03T03:43:38.991Z,14.90
2018-08-03T03:46:09.911Z,16.10
2018-08-03T03:48:40.319Z,15.72
2018-08-03T03:51:10.746Z,14.53
2018-08-03T03:53:41.238Z,15.18
2018-08-03T03:56:12.758Z,15.53
2018-08-03T03:58:43.469Z,15.18
2018-08-03T04:01:14.247Z,15.10
2018-08-03T04:03:44.678Z,14.70
2018-08-03T04:06:15.227Z,14.95
2018-08-03T04:08:45.789Z,15.45
2018-08-03T04:11:16.278Z,15.68
2018-08-03T04:13:46.619Z,14.60
2018-08-03T04:16:17.105Z,15.70
2018-08-03T04:18:47.520Z,15.32
2018-08-03T04:21:18.385Z,14.65
2018-08-03T04:23:48.813Z,14.83
2018-08-03T04:26:19.271Z,15.23
2018-08-03T04:28:49.643Z,14.80
2018-08-03T04:31:20.781Z,15.10
2018-08-03T04:33:51.287Z,15.05
2018-08-03T04:36:22.019Z,15.25
2018-08-03T04:38:52.463Z,15.25
2018-08-03T04:41:23.096Z,14.47
2018-08-03T04:43:53.503Z,15.18
2018-08-03T04:46:24.083Z,15.72
2018-08-03T04:48:54.502Z,15.68
2018-08-03T04:51:24.981Z,14.90
2018-08-03T04:53:55.382Z,15.72
2018-08-03T04:56:25.786Z,15.32
2018-08-03T04:58:56.474Z,15.30
2018-08-03T05:01:26.876Z,14.25
2018-08-03T05:03:57.410Z,15.72
2018-08-03T05:06:27.873Z,14.68
2018-08-03T05:08:58.336Z,13.75
2018-08-03T05:11:29.086Z,14.10
2018-08-03T05:13:59.558Z,13.60
2018-08-03T05:16:29.918Z,13.10
2018-08-03T05:19:01.758Z,13.08
2018-08-03T05:21:32.404Z,13.78
2018-08-03T05:24:02.806Z,13.43
2018-08-03T05:26:33.451Z,13.13
2018-08-03T05:29:03.878Z,13.50
2018-08-03T05:31:34.293Z,13.22
2018-08-03T05:34:04.762Z,12.90
2018-08-03T05:36:35.188Z,12.78
2018-08-03T05:39:09.012Z,12.85
2018-08-03T05:41:40.056Z,13.70
2018-08-03T05:44:10.432Z,13.60
2018-08-03T05:46:41.285Z,13.83
2018-08-03T05:49:11.649Z,13.18
2018-08-03T05:51:42.388Z,13.05
2018-08-03T05:54:13.125Z,14.00
2018-08-03T05:56:43.571Z,13.20
2018-08-03T05:59:14.057Z,12.95
2018-08-03T06:01:44.437Z,12.75
2018-08-03T06:04:14.756Z,13.15
2018-08-03T06:06:45.153Z,13.70
2018-08-03T06:09:15.886Z,13.85
2018-08-03T06:11:47.325Z,13.18
2018-08-03T06:14:17.826Z,13.62
2018-08-03T06:16:48.261Z,14.35
2018-08-03T06:19:18.670Z,15.35
2018-08-03T06:21:49.146Z,14.65
2018-08-03T06:24:19.556Z,14.87
2018-08-03T06:26:50.601Z,14.93
2018-08-03T06:29:21.168Z,14.58
2018-08-03T06:31:51.629Z,14.93
2018-08-03T06:34:22.242Z,15.23
2018-08-03T06:36:52.766Z,14.90
2018-08-03T06:39:23.410Z,14.95
2018-08-03T06:41:54.296Z,14.65
2018-08-03T06:44:24.706Z,14.93
2018-08-03T06:46:55.292Z,14.53
2018-08-03T06:49:25.370Z,13.60
2018-08-03T06:51:55.884Z,14.28
2018-08-03T06:54:26.381Z,13.72
2018-08-03T06:56:56.862Z,14.35
2018-08-03T06:59:27.275Z,13.28
2018-08-03T07:01:57.984Z,13.32
2018-08-03T07:04:28.575Z,13.70
2018-08-03T07:06:59.167Z,14.47
2018-08-03T07:09:29.729Z,13.60
2018-08-03T07:12:00.191Z,14.70
2018-08-03T07:14:30.618Z,14.38
2018-08-03T07:17:01.338Z,14.53
2018-08-03T07:19:32.556Z,14.63
2018-08-03T07:22:03.455Z,14.60
2018-08-03T07:24:33.934Z,14.25
2018-08-03T07:27:04.399Z,13.43
2018-08-03T07:29:34.850Z,13.35
2018-08-03T07:32:05.696Z,13.22
2018-08-03T07:34:36.404Z,13.32
2018-08-03T07:37:07.001Z,13.53
2018-08-03T07:39:37.550Z,13.40
2018-08-03T07:42:08.094Z,14.30
2018-08-03T07:44:38.553Z,12.80
2018-08-03T07:47:10.338Z,12.15
2018-08-03T07:49:40.813Z,12.60
2018-08-03T07:55:47.426Z,12.40
2018-08-03T07:58:17.842Z,12.82
2018-08-03T08:00:48.244Z,13.45
2018-08-03T08:03:18.762Z,13.68
2018-08-03T08:05:49.344Z,13.78
2018-08-03T08:08:20.051Z,12.23
2018-08-03T08:10:50.562Z,13.32
2018-08-03T08:13:21.560Z,12.90
2018-08-03T08:15:52.299Z,11.68
2018-08-03T08:18:22.746Z,12.80
2018-08-03T08:20:53.096Z,11.85
2018-08-03T08:23:23.870Z,13.15
2018-08-03T08:25:55.160Z,13.22
2018-08-03T08:28:25.637Z,12.35
2018-08-03T08:31:37.285Z,13.28
2018-08-03T08:34:07.948Z,11.75
2018-08-03T08:36:38.686Z,12.63
2018-08-03T08:39:12.617Z,12.15
2018-08-03T08:41:43.841Z,11.65
2018-08-03T08:44:14.686Z,13.60
2018-08-03T08:46:45.103Z,13.32
2018-08-03T08:49:15.568Z,11.43
2018-08-03T08:51:46.489Z,11.65
2018-08-03T08:54:16.989Z,11.28
2018-08-03T08:56:47.691Z,11.33
2018-08-03T08:59:18.099Z,10.90
2018-08-03T09:01:48.499Z,11.03
2018-08-03T09:04:19.001Z,11.57
2018-08-03T09:06:49.713Z,10.78
2018-08-03T09:09:20.429Z,10.78
2018-08-03T09:11:51.763Z,11.05
2018-08-03T09:14:22.198Z,10.63
2018-08-03T09:16:52.598Z,11.08
2018-08-03T09:19:23.056Z,10.08
2018-08-03T09:21:53.706Z,9.70
2018-08-03T09:24:24.156Z,10.75
2018-08-03T09:26:54.710Z,10.35
2018-08-03T09:29:25.346Z,10.38
2018-08-03T09:31:55.751Z,11.05
2018-08-03T09:38:02.956Z,11.18
2018-08-03T09:40:33.372Z,10.72
2018-08-03T09:43:03.883Z,10.85
2018-08-03T09:45:34.490Z,10.50
2018-08-03T09:48:04.922Z,10.50
2018-08-03T09:50:35.674Z,10.68
2018-08-03T09:53:06.164Z,10.85
2018-08-03T09:55:36.628Z,11.30
2018-08-03T09:58:07.195Z,11.05
2018-08-03T10:04:14.030Z,11.40
2018-08-03T10:06:44.872Z,10.98
2018-08-03T10:09:15.888Z,10.53
2018-08-03T10:11:46.380Z,10.38
2018-08-03T10:14:16.894Z,10.95
2018-08-03T10:16:47.298Z,11.15
2018-08-03T10:19:17.939Z,11.15
2018-08-03T10:21:48.338Z,10.95
2018-08-03T10:24:18.979Z,10.80
2018-08-03T10:26:49.407Z,11.50
2018-08-03T10:29:20.038Z,11.03
2018-08-03T10:31:50.500Z,11.35
2018-08-03T10:34:20.688Z,10.70
2018-08-03T10:36:51.063Z,11.00
2018-08-03T10:39:21.243Z,11.77
2018-08-03T10:41:51.527Z,10.57
2018-08-03T10:44:21.694Z,11.37
2018-08-03T10:46:51.880Z,11.87
2018-08-03T10:49:22.092Z,11.53
2018-08-03T10:51:52.615Z,10.67
2018-08-03T10:54:23.124Z,11.00
2018-08-03T10:56:53.284Z,11.33
2018-08-03T10:59:23.449Z,11.07
2018-08-03T11:01:53.733Z,10.73
2018-08-03T11:04:23.958Z,10.50
2018-08-03T11:06:54.322Z,10.87
2018-08-03T11:09:24.659Z,10.77
2018-08-03T11:11:54.789Z,10.53
2018-08-03T11:14:25.074Z,9.80
2018-08-03T11:16:55.387Z,9.80
2018-08-03T11:19:25.544Z,10.00
2018-08-03T11:21:55.606Z,9.50
2018-08-03T11:24:25.728Z,10.30
2018-08-03T11:27:36.426Z,9.93
2018-08-03T11:30:08.667Z,9.40
2018-08-03T11:32:39.204Z,9.10
2018-08-03T11:35:10.368Z,9.93
2018-08-03T11:37:40.664Z,9.83
2018-08-03T11:40:10.842Z,10.13
2018-08-03T11:42:40.974Z,9.97
2018-08-03T11:45:11.904Z,9.57
2018-08-03T11:47:42.021Z,9.70
2018-08-03T11:50:12.195Z,9.07
2018-08-03T11:52:42.346Z,10.20
2018-08-03T11:55:12.506Z,10.10
2018-08-03T11:57:43.090Z,9.77
2018-08-03T12:00:13.738Z,9.20
2018-08-03T12:02:44.352Z,9.40
2018-08-03T12:05:14.444Z,8.57
2018-08-03T12:07:44.590Z,9.17
2018-08-03T12:10:14.794Z,9.03
2018-08-03T12:12:44.917Z,8.93
2018-08-03T12:18:50.601Z,9.93
2018-08-03T12:21:20.755Z,10.10
2018-08-03T12:23:50.948Z,10.30
2018-08-03T12:26:21.211Z,10.07
2018-08-03T12:28:51.354Z,10.20
2018-08-03T12:31:21.705Z,10.43
2018-08-03T12:33:51.830Z,9.53
2018-08-03T12:36:22.033Z,8.27
2018-08-03T12:38:52.135Z,8.63
2018-08-03T12:41:22.591Z,8.67
2018-08-03T12:44:34.815Z,9.87
2018-08-03T12:47:05.007Z,10.20
2018-08-03T12:49:35.796Z,10.90
2018-08-03T12:52:05.929Z,10.30
2018-08-03T12:54:36.495Z,9.07
2018-08-03T12:57:37.330Z,8.93
2018-08-03T13:00:08.229Z,9.07
2018-08-03T13:02:38.567Z,9.73
2018-08-03T13:05:09.580Z,9.40
2018-08-03T13:07:39.840Z,10.70
2018-08-03T13:13:46.235Z,10.50
2018-08-03T13:16:16.511Z,10.70
2018-08-03T13:18:46.644Z,9.97
2018-08-03T13:21:33.881Z,9.70
2018-08-03T13:24:04.673Z,8.90
2018-08-03T13:26:35.303Z,9.47
2018-08-03T13:29:05.639Z,9.20
2018-08-03T13:31:36.629Z,9.03
2018-08-03T13:34:07.020Z,9.40
2018-08-03T13:36:37.272Z,8.93
2018-08-03T13:39:09.458Z,9.00
2018-08-03T13:41:40.279Z,9.40
2018-08-03T13:44:10.667Z,8.00
2018-08-03T13:46:41.210Z,9.33
2018-08-03T13:49:11.671Z,8.90
2018-08-03T13:51:41.804Z,8.53
2018-08-03T13:54:11.900Z,8.53
2018-08-03T13:56:42.019Z,10.17
2018-08-03T13:59:12.380Z,9.40
2018-08-03T14:01:59.591Z,8.90
2018-08-03T14:04:29.862Z,9.00
2018-08-03T14:07:00.039Z,9.17
2018-08-03T14:09:30.395Z,9.20
2018-08-03T14:12:00.537Z,9.37
2018-08-03T14:14:31.103Z,8.43
2018-08-03T14:17:01.267Z,8.93
2018-08-03T14:19:31.449Z,8.87
2018-08-03T14:22:01.765Z,8.77
2018-08-03T14:24:32.279Z,9.37
2018-08-03T14:27:02.989Z,7.93
2018-08-03T14:29:33.345Z,8.33
2018-08-03T14:32:04.645Z,9.03
2018-08-03T14:34:35.188Z,9.00
2018-08-03T14:37:05.389Z,8.57
2018-08-03T14:39:36.208Z,8.70
2018-08-03T14:42:07.414Z,8.70
2018-08-03T14:44:38.903Z,8.57
2018-08-03T14:47:09.363Z,8.20
2018-08-03T14:49:40.023Z,9.50
2018-08-03T14:52:10.827Z,9.43
2018-08-03T14:54:41.435Z,8.73
2018-08-03T14:57:12.455Z,8.00
2018-08-03T14:59:42.963Z,8.50
2018-08-03T15:02:13.670Z,8.37
2018-08-03T15:04:44.216Z,8.83
2018-08-03T15:07:14.390Z,8.90
2018-08-03T15:09:44.508Z,8.80
2018-08-03T15:12:15.041Z,8.83
2018-08-03T15:14:45.161Z,8.90
2018-08-03T15:17:15.448Z,8.87
2018-08-03T15:19:45.609Z,9.10
2018-08-03T15:22:15.949Z,8.87
2018-08-03T15:24:46.079Z,9.67
2018-08-03T15:27:16.313Z,8.40
2018-08-03T15:29:46.461Z,9.07
2018-08-03T15:32:16.643Z,9.13
2018-08-03T15:34:46.801Z,9.00
2018-08-03T15:37:17.755Z,9.43
2018-08-03T15:39:48.004Z,9.47
2018-08-03T15:42:18.929Z,9.70
2018-08-03T15:44:49.097Z,9.17
2018-08-03T15:47:19.727Z,8.97
2018-08-03T15:49:50.091Z,8.90
2018-08-03T15:52:20.785Z,9.90
2018-08-03T15:54:50.883Z,10.23
2018-08-03T15:57:21.096Z,9.60
2018-08-03T15:59:51.280Z,9.40
2018-08-03T16:02:21.567Z,9.43
2018-08-03T16:04:51.653Z,8.80
2018-08-03T16:07:21.879Z,9.43
2018-08-03T16:09:52.024Z,9.50
2018-08-03T16:12:22.243Z,10.23
2018-08-03T16:14:52.489Z,9.40
2018-08-03T16:17:22.655Z,8.77
2018-08-03T16:19:52.781Z,9.20
2018-08-03T16:22:22.963Z,8.93
2018-08-03T16:24:53.105Z,9.73
2018-08-03T16:27:23.924Z,9.10
2018-08-03T16:29:54.844Z,9.43
2018-08-03T16:32:24.973Z,9.03
2018-08-03T16:34:55.531Z,9.67
2018-08-03T16:37:25.745Z,9.77
2018-08-03T16:39:56.075Z,9.70
2018-08-03T16:42:26.469Z,9.73
2018-08-03T16:44:56.695Z,9.30
2018-08-03T16:47:27.151Z,9.57
2018-08-03T16:49:57.301Z,9.90
2018-08-03T16:52:27.507Z,9.67
2018-08-03T16:54:57.832Z,9.33
2018-08-03T16:57:28.063Z,9.33
2018-08-03T16:59:58.340Z,9.77
2018-08-03T17:02:28.559Z,9.63
2018-08-03T17:04:58.732Z,9.90
2018-08-03T17:07:29.089Z,9.07
2018-08-03T17:09:59.225Z,9.40
2018-08-03T17:13:33.788Z,9.63
2018-08-03T17:16:03.943Z,9.47
2018-08-03T17:18:34.156Z,9.77
2018-08-03T17:21:04.478Z,9.73
2018-08-03T17:23:34.627Z,9.40
2018-08-03T17:26:04.887Z,9.57
2018-08-03T17:28:35.194Z,8.90
2018-08-03T17:31:05.376Z,10.10
2018-08-03T17:34:36.766Z,9.43
2018-08-03T17:37:07.289Z,8.93
2018-08-03T17:39:38.052Z,8.70
2018-08-03T17:42:08.577Z,9.40
2018-08-03T17:44:38.710Z,9.47
2018-08-03T17:50:45.318Z,10.43
2018-08-03T17:53:15.590Z,10.03
2018-08-03T17:55:45.662Z,9.57
2018-08-03T17:58:15.806Z,9.43
2018-08-03T18:00:46.000Z,9.43
2018-08-03T18:03:16.378Z,9.97
2018-08-03T18:05:46.512Z,10.20
2018-08-03T18:08:16.749Z,9.53
2018-08-03T18:10:46.890Z,10.07
2018-08-03T18:13:17.052Z,10.50
2018-08-03T18:15:47.670Z,10.03
2018-08-03T18:18:17.951Z,10.53
2018-08-03T18:20:48.186Z,9.90
2018-08-03T18:23:18.326Z,10.37
2018-08-03T18:25:48.522Z,10.03
2018-08-03T18:28:19.033Z,10.17
2018-08-03T18:30:49.362Z,10.53
2018-08-03T18:33:19.470Z,9.73
2018-08-03T18:35:49.702Z,9.87
2018-08-03T18:38:19.905Z,10.80
2018-08-03T18:40:50.204Z,9.67
2018-08-03T18:43:20.400Z,10.23
2018-08-03T18:45:50.552Z,10.27
2018-08-03T18:48:20.720Z,10.50
2018-08-03T18:50:51.044Z,9.80
2018-08-03T18:53:21.517Z,9.80
2018-08-03T18:55:51.758Z,10.87
2018-08-03T18:58:21.927Z,10.10
2018-08-03T19:00:52.184Z,10.77
2018-08-03T19:03:22.740Z,10.68
2018-08-03T19:06:35.278Z,10.55
2018-08-03T19:09:08.111Z,11.15
2018-08-03T19:11:38.361Z,11.23
2018-08-03T19:14:08.576Z,10.53
2018-08-03T19:16:38.984Z,10.67
2018-08-03T19:19:10.093Z,10.73
2018-08-03T19:21:40.770Z,9.88
2018-08-03T19:24:11.381Z,10.30
2018-08-03T19:26:41.953Z,10.48
2018-08-03T19:29:12.564Z,10.72
2018-08-03T19:31:43.140Z,10.15
2018-08-03T19:34:13.300Z,10.83
2018-08-03T19:36:43.946Z,10.53
2018-08-03T19:39:14.426Z,10.70
2018-08-03T19:41:45.125Z,10.60
2018-08-03T19:44:15.924Z,9.78
2018-08-03T19:46:46.580Z,9.80
2018-08-03T19:49:16.976Z,10.00
2018-08-03T19:51:47.714Z,10.15
2018-08-03T19:57:54.324Z,9.93
2018-08-03T20:00:24.485Z,10.07
2018-08-03T20:02:55.012Z,9.43
2018-08-03T20:05:26.437Z,10.13
2018-08-03T20:07:57.587Z,10.80
2018-08-03T20:14:38.314Z,10.23
2018-08-03T20:17:09.075Z,10.45
2018-08-03T20:19:39.780Z,10.23
2018-08-03T20:22:17.109Z,11.22
2018-08-03T20:24:48.049Z,10.23
2018-08-03T20:27:18.629Z,10.68
2018-08-03T20:29:49.129Z,9.63
2018-08-03T20:32:19.624Z,10.25
2018-08-03T20:34:51.204Z,9.98
2018-08-03T20:37:21.794Z,10.38
2018-08-03T20:39:52.942Z,10.05
2018-08-03T20:42:23.728Z,10.05
2018-08-03T20:44:54.265Z,10.32
2018-08-03T20:47:24.756Z,10.98
2018-08-03T20:49:55.249Z,10.63
2018-08-03T20:52:25.894Z,9.45
2018-08-03T20:54:56.383Z,10.13
2018-08-03T20:57:26.882Z,9.98
2018-08-03T20:59:57.423Z,11.43
2018-08-03T21:02:27.952Z,9.88
2018-08-03T21:04:58.717Z,10.58
2018-08-03T21:07:29.339Z,10.60
2018-08-03T21:09:59.911Z,9.95
2018-08-03T21:12:30.381Z,11.20
2018-08-03T21:15:01.255Z,10.30
2018-08-03T21:17:31.795Z,10.82
2018-08-03T21:20:02.391Z,10.98
2018-08-03T21:22:32.911Z,10.80
2018-08-03T21:25:03.453Z,10.20
2018-08-03T21:27:34.261Z,11.00
2018-08-03T21:30:05.617Z,11.38
2018-08-03T21:32:36.269Z,11.85
2018-08-03T21:35:07.163Z,11.88
2018-08-03T21:37:38.418Z,11.05
2018-08-03T21:40:09.303Z,12.35
2018-08-03T21:42:39.829Z,11.63
2018-08-03T21:45:10.383Z,11.90
2018-08-03T21:48:34.512Z,12.23
2018-08-03T21:51:05.365Z,11.85
2018-08-03T21:53:35.743Z,14.80
2018-08-03T21:56:06.407Z,12.30
2018-08-03T21:58:37.033Z,12.20
2018-08-03T22:01:12.385Z,11.50
2018-08-03T22:03:43.207Z,11.97
2018-08-03T22:06:13.637Z,12.07
2018-08-03T22:08:44.170Z,11.65
2018-08-03T22:11:14.983Z,11.83
2018-08-03T22:13:45.404Z,11.60
2018-08-03T22:16:16.187Z,11.73
2018-08-03T22:18:46.549Z,11.78
2018-08-03T22:21:17.533Z,11.28
2018-08-03T22:23:48.011Z,12.33
2018-08-03T22:26:18.707Z,11.70
2018-08-03T22:28:49.575Z,12.58
2018-08-03T22:31:20.390Z,12.50
2018-08-03T22:33:50.984Z,12.30
2018-08-03T22:36:21.489Z,11.80
2018-08-03T22:38:51.991Z,12.30
2018-08-03T22:41:22.485Z,12.35
2018-08-03T22:43:53.047Z,12.47
2018-08-03T22:46:25.271Z,11.22
2018-08-03T22:48:55.947Z,12.50
2018-08-03T22:51:27.047Z,11.20
2018-08-03T22:53:57.867Z,12.33
2018-08-03T22:56:28.302Z,12.18
2018-08-03T22:58:58.873Z,13.03
2018-08-03T23:01:29.355Z,12.82
2018-08-03T23:03:59.860Z,11.83
2018-08-03T23:06:30.350Z,12.58
2018-08-03T23:09:01.025Z,13.75
2018-08-03T23:11:31.570Z,13.98
2018-08-03T23:14:02.143Z,13.45
2018-08-03T23:16:32.736Z,14.03
2018-08-03T23:19:03.161Z,13.40
2018-08-03T23:21:33.607Z,13.28
2018-08-03T23:24:04.100Z,13.25
2018-08-03T23:26:34.625Z,13.32
2018-08-03T23:29:07.070Z,12.53
2018-08-03T23:31:38.058Z,12.40
2018-08-03T23:34:08.538Z,12.82
2018-08-03T23:36:39.031Z,12.45
2018-08-03T23:39:10.264Z,12.05
2018-08-03T23:41:40.847Z,12.07
2018-08-03T23:44:12.113Z,12.33
2018-08-03T23:46:42.555Z,12.58
2018-08-03T23:49:13.017Z,11.90
2018-08-03T23:51:43.515Z,12.03
2018-08-03T23:54:14.159Z,13.35
2018-08-03T23:56:44.591Z,12.73
2018-08-03T23:59:15.033Z,13.88
